Time;durP1;ratioP1;P1;durP2;ratioP2;P2;SDS_P1;SDS_P2;PMS_P1;PMS_P2;Temp;Humidity;BMP_temperature;BMP_pressure;BME280_temperature;BME280_humidity;BME280_pressure;Samples;Min_cycle;Max_cycle;Signal;HPM_P1;HPM_P2
2022/05/01 00:01:17;;;;;;;5.50;4.40;;;17.90;54.10;;;;;;4952230;28;93509;-63
2022/05/01 00:03:43;;;;;;;4.80;4.30;;;18.00;54.20;;;;;;4952662;28;93566;-63
2022/05/01 00:06:10;;;;;;;5.53;4.43;;;17.90;54.10;;;;;;4951725;28;92640;-63
2022/05/01 00:08:41;;;;;;;5.13;4.63;;;17.90;54.10;;;;;;4952393;28;92809;-64
2022/05/01 00:11:09;;;;;;;4.40;4.00;;;17.90;54.10;;;;;;4949879;28;96525;-67
2022/05/01 00:13:36;;;;;;;4.50;4.10;;;17.90;54.10;;;;;;4951747;28;95607;-65
2022/05/01 00:16:02;;;;;;;4.68;4.18;;;17.90;54.10;;;;;;4952165;28;92676;-64
2022/05/01 00:18:27;;;;;;;4.75;4.20;;;17.90;55.10;;;;;;4951075;28;92992;-64
2022/05/01 00:20:54;;;;;;;4.75;4.35;;;17.90;54.20;;;;;;4951412;28;94222;-66
2022/05/01 00:23:20;;;;;;;4.47;4.07;;;17.90;54.10;;;;;;4951757;28;93864;-64
2022/05/01 00:25:46;;;;;;;4.50;4.10;;;17.90;54.10;;;;;;4951573;28;92433;-65
2022/05/01 00:28:13;;;;;;;5.75;4.60;;;17.90;54.00;;;;;;4950995;28;91814;-64
2022/05/01 00:30:40;;;;;;;4.75;4.25;;;17.90;54.00;;;;;;4951407;28;92584;-65
2022/05/01 00:38:35;;;;;;;4.72;4.10;;;17.80;54.00;;;;;;4951449;28;92964;-63
2022/05/01 00:41:01;;;;;;;5.20;4.28;;;17.80;54.10;;;;;;4951646;28;94162;-64
2022/05/01 00:43:27;;;;;;;9.18;4.68;;;17.80;54.00;;;;;;4950785;28;94068;-64
2022/05/01 00:45:52;;;;;;;4.63;4.22;;;17.80;54.00;;;;;;4951074;28;93096;-64
2022/05/01 00:48:18;;;;;;;4.93;4.43;;;17.80;54.00;;;;;;4951048;28;93184;-64
2022/05/01 00:50:44;;;;;;;5.60;4.70;;;17.80;54.00;;;;;;4951669;28;94379;-65
2022/05/01 00:53:10;;;;;;;4.60;4.18;;;17.80;54.00;;;;;;4951823;28;93873;-63
2022/05/01 00:55:37;;;;;;;4.80;4.30;;;17.80;54.10;;;;;;4951424;28;92866;-64
2022/05/01 00:58:06;;;;;;;5.32;4.45;;;17.80;54.00;;;;;;4951461;28;92728;-65
2022/05/01 01:00:35;;;;;;;5.10;4.40;;;17.80;54.00;;;;;;4949940;28;96476;-65
2022/05/01 01:03:02;;;;;;;4.43;4.03;;;17.80;54.00;;;;;;4949608;28;95437;-64
2022/05/01 01:05:28;;;;;;;4.35;3.90;;;17.70;54.10;;;;;;4950580;28;92989;-65
2022/05/01 01:07:54;;;;;;;4.88;3.90;;;17.80;54.10;;;;;;4951367;28;92948;-64
2022/05/01 01:10:20;;;;;;;5.10;4.22;;;17.70;53.90;;;;;;4950987;28;93092;-63
2022/05/01 01:12:56;;;;;;;4.95;4.38;;;17.80;54.00;;;;;;4951224;28;94334;-64
2022/05/01 01:15:30;;;;;;;4.43;4.03;;;17.70;54.00;;;;;;4951360;28;93200;-63
2022/05/01 01:17:56;;;;;;;4.57;4.18;;;17.70;54.00;;;;;;4951499;28;91873;-63
2022/05/01 01:20:25;;;;;;;4.45;4.05;;;17.70;54.00;;;;;;4951050;28;93183;-62
2022/05/01 01:22:55;;;;;;;4.50;4.10;;;17.70;54.00;;;;;;4951849;28;94791;-62
2022/05/01 01:25:24;;;;;;;4.90;4.40;;;17.70;53.90;;;;;;4950437;28;95016;-62
2022/05/01 01:27:51;;;;;;;4.30;3.90;;;17.70;54.00;;;;;;4952233;28;92796;-64
2022/05/01 01:33:03;;;;;;;4.40;4.00;;;17.70;53.90;;;;;;4951093;28;92466;-64
2022/05/01 01:35:33;;;;;;;5.05;4.43;;;17.60;54.00;;;;;;4951406;28;92639;-65
2022/05/01 01:38:00;;;;;;;5.38;3.90;;;17.70;53.90;;;;;;4952557;28;92948;-64
2022/05/01 01:40:34;;;;;;;4.70;4.03;;;17.60;53.90;;;;;;4951723;28;94119;-64
2022/05/01 01:43:02;;;;;;;4.68;4.28;;;17.70;53.90;;;;;;4952735;28;93883;-64
2022/05/01 01:45:28;;;;;;;4.40;4.00;;;17.70;53.90;;;;;;4950727;28;93052;-64
2022/05/01 01:47:55;;;;;;;4.68;3.80;;;17.70;53.90;;;;;;4951761;28;92506;-64
2022/05/01 01:50:21;;;;;;;4.43;4.03;;;17.70;53.90;;;;;;4948897;28;96348;-64
2022/05/01 01:52:47;;;;;;;4.28;3.88;;;17.60;53.80;;;;;;4949075;28;96909;-63
2022/05/01 01:55:19;;;;;;;4.75;4.13;;;17.60;53.80;;;;;;4950339;28;92875;-63
2022/05/01 01:57:45;;;;;;;4.30;3.90;;;17.60;53.70;;;;;;4950502;28;94807;-68
2022/05/01 02:00:14;;;;;;;4.22;3.83;;;17.60;53.70;;;;;;4951090;28;94309;-64
2022/05/01 02:02:40;;;;;;;5.57;4.60;;;17.60;53.70;;;;;;4950010;28;92934;-64
2022/05/01 02:05:07;;;;;;;5.15;3.92;;;17.60;54.80;;;;;;4951033;28;92737;-64
2022/05/01 02:07:33;;;;;;;4.75;4.25;;;17.60;53.70;;;;;;4950700;28;92293;-63
2022/05/01 02:09:59;;;;;;;4.30;3.88;;;17.60;53.70;;;;;;4950892;28;94672;-64
2022/05/01 02:12:26;;;;;;;4.70;3.97;;;17.60;53.60;;;;;;4949454;28;94162;-64
2022/05/01 02:14:52;;;;;;;3.90;3.50;;;17.60;53.60;;;;;;4951457;28;95067;-64
2022/05/01 02:17:18;;;;;;;4.60;4.07;;;17.60;53.60;;;;;;4954205;28;92551;-64
2022/05/01 02:19:44;;;;;;;5.40;4.20;;;17.50;53.50;;;;;;4952548;28;94165;-66
2022/05/01 02:22:09;;;;;;;5.75;4.10;;;17.50;53.60;;;;;;4953276;28;92873;-64
2022/05/01 02:24:35;;;;;;;4.20;3.88;;;17.50;53.60;;;;;;4952950;28;92596;-64
2022/05/01 02:27:01;;;;;;;4.60;4.05;;;17.50;53.50;;;;;;4953320;28;92580;-64
2022/05/01 02:29:27;;;;;;;4.55;4.15;;;17.50;53.50;;;;;;4953695;28;93115;-64
2022/05/01 02:31:53;;;;;;;5.93;4.32;;;17.50;53.50;;;;;;4953375;28;94060;-64
2022/05/01 02:34:23;;;;;;;4.88;4.38;;;17.50;53.40;;;;;;4953862;28;92558;-63
2022/05/01 02:36:53;;;;;;;4.20;3.80;;;17.50;53.50;;;;;;4953414;28;92736;-63
2022/05/01 02:39:19;;;;;;;4.68;4.28;;;17.50;53.40;;;;;;4951542;28;95687;-64
2022/05/01 02:41:46;;;;;;;4.20;3.80;;;17.50;53.40;;;;;;4952992;28;96282;-64
2022/05/01 02:44:11;;;;;;;4.10;3.80;;;17.50;53.40;;;;;;4953688;28;92516;-64
2022/05/01 02:46:38;;;;;;;4.57;4.10;;;17.50;53.40;;;;;;4952256;28;92678;-64
2022/05/01 02:49:08;;;;;;;4.13;3.80;;;17.50;53.30;;;;;;4953300;28;93183;-64
2022/05/01 02:51:34;;;;;;;4.40;4.00;;;17.50;54.40;;;;;;4952626;28;94443;-64
2022/05/01 02:54:01;;;;;;;4.30;3.90;;;17.50;53.40;;;;;;4952792;28;92647;-63
2022/05/01 02:56:26;;;;;;;4.50;4.05;;;17.50;53.30;;;;;;4953446;28;91855;-63
2022/05/01 02:58:52;;;;;;;5.07;3.80;;;17.50;53.40;;;;;;4952278;28;95188;-63
2022/05/01 03:01:20;;;;;;;5.53;3.88;;;17.40;53.30;;;;;;4953432;28;94334;-64
2022/05/01 03:03:45;;;;;;;3.88;3.55;;;17.40;53.30;;;;;;4952126;28;94989;-63
2022/05/01 03:06:11;;;;;;;4.75;4.18;;;17.40;53.20;;;;;;4953491;28;92502;-63
2022/05/01 03:08:36;;;;;;;4.43;4.00;;;17.40;53.20;;;;;;4952011;28;95311;-64
2022/05/01 03:11:02;;;;;;;5.97;4.43;;;17.40;53.30;;;;;;4952804;28;94122;-63
2022/05/01 03:13:29;;;;;;;4.50;4.10;;;17.40;53.20;;;;;;4951776;28;97229;-63
2022/05/01 04:19:34;;;;;;;4.47;4.07;;;17.20;52.90;;;;;;4973971;22;96252;-69
2022/05/01 04:22:01;;;;;;;4.25;3.85;;;17.20;52.90;;;;;;4953683;28;92604;-69
2022/05/01 04:24:26;;;;;;;4.40;4.00;;;17.20;53.00;;;;;;4952627;28;92709;-69
2022/05/01 04:26:54;;;;;;;4.65;4.22;;;17.20;52.80;;;;;;4952005;28;97265;-69
2022/05/01 04:29:38;;;;;;;5.22;3.97;;;17.20;52.80;;;;;;4950672;28;94320;-69
2022/05/01 04:32:05;;;;;;;5.13;4.60;;;17.20;52.80;;;;;;4952134;28;92597;-70
2022/05/01 04:34:32;;;;;;;4.50;4.07;;;17.10;52.70;;;;;;4952769;28;93012;-69
2022/05/01 04:36:58;;;;;;;4.68;3.90;;;17.20;52.80;;;;;;4952082;28;94267;-69
2022/05/01 04:39:24;;;;;;;5.82;4.32;;;17.10;52.80;;;;;;4952617;28;94174;-68
2022/05/01 04:41:50;;;;;;;4.70;4.30;;;17.20;52.80;;;;;;4952579;28;92897;-69
2022/05/01 04:44:16;;;;;;;4.57;4.18;;;17.20;52.70;;;;;;4953216;28;91756;-69
2022/05/01 04:46:41;;;;;;;4.75;4.35;;;17.20;52.70;;;;;;4951708;28;94191;-69
2022/05/01 04:49:07;;;;;;;5.32;4.57;;;17.20;52.60;;;;;;4952848;28;93225;-69
2022/05/01 04:51:33;;;;;;;5.05;4.03;;;17.10;52.70;;;;;;4950926;28;95798;-69
2022/05/01 04:53:58;;;;;;;5.15;4.40;;;17.10;52.60;;;;;;4951729;28;92690;-69
2022/05/01 04:59:08;;;;;;;6.00;4.38;;;17.10;52.50;;;;;;4951776;28;92680;-68
2022/05/01 05:01:35;;;;;;;4.85;4.43;;;17.10;52.60;;;;;;4952033;28;92469;-69
2022/05/01 05:04:03;;;;;;;4.60;4.20;;;17.10;52.60;;;;;;4952935;28;93010;-69
2022/05/01 05:06:29;;;;;;;4.95;4.45;;;17.20;52.60;;;;;;4952073;28;94166;-69
2022/05/01 05:11:39;;;;;;;4.57;4.18;;;17.10;52.50;;;;;;4952448;28;92642;-69
2022/05/01 05:14:05;;;;;;;4.60;4.20;;;17.10;52.60;;;;;;4952460;28;92904;-69
2022/05/01 05:16:31;;;;;;;4.95;4.45;;;17.10;52.60;;;;;;4950009;28;96187;-69
2022/05/01 05:18:57;;;;;;;5.13;4.45;;;17.10;52.60;;;;;;4950302;28;95407;-70
2022/05/01 05:21:22;;;;;;;4.72;4.32;;;17.10;52.70;;;;;;4951091;28;92997;-70
2022/05/01 05:23:48;;;;;;;4.60;4.20;;;17.10;52.60;;;;;;4950377;28;92528;-68
2022/05/01 05:26:13;;;;;;;4.95;4.53;;;17.10;52.60;;;;;;4950569;28;94480;-69
2022/05/01 05:28:39;;;;;;;4.68;4.28;;;17.10;52.60;;;;;;4949879;28;94814;-68
2022/05/01 05:31:05;;;;;;;5.20;4.70;;;17.10;52.70;;;;;;4950664;28;92580;-68
2022/05/01 05:33:30;;;;;;;5.20;4.70;;;17.10;52.70;;;;;;4951430;28;92194;-69
2022/05/01 05:35:56;;;;;;;4.90;4.40;;;17.10;52.50;;;;;;4950271;28;93296;-69
2022/05/01 05:38:22;;;;;;;4.85;4.35;;;17.10;52.50;;;;;;4950680;28;92588;-71
2022/05/01 05:40:47;;;;;;;4.53;4.13;;;17.10;52.60;;;;;;4949678;28;95054;-69
2022/05/01 05:43:13;;;;;;;5.13;4.63;;;17.10;52.70;;;;;;4951786;28;92536;-69
2022/05/01 05:45:39;;;;;;;4.63;4.22;;;17.10;52.60;;;;;;4949961;28;94010;-69
2022/05/01 05:48:06;;;;;;;4.40;4.00;;;17.10;52.50;;;;;;4950054;28;93643;-70
2022/05/01 05:50:32;;;;;;;4.45;4.03;;;17.10;52.60;;;;;;4951194;28;92856;-69
2022/05/01 05:52:57;;;;;;;4.85;4.45;;;17.10;52.70;;;;;;4950393;28;92497;-69
2022/05/01 05:55:23;;;;;;;6.05;4.90;;;17.10;52.70;;;;;;4950685;28;98468;-69
2022/05/01 05:57:48;;;;;;;4.80;4.40;;;17.10;52.70;;;;;;4950075;28;94341;-69
2022/05/01 06:00:14;;;;;;;5.13;4.63;;;17.10;52.70;;;;;;4951187;28;92488;-70
2022/05/01 06:02:41;;;;;;;4.78;4.35;;;17.10;52.70;;;;;;4950620;28;94190;-69
2022/05/01 06:05:07;;;;;;;5.00;4.50;;;17.10;52.60;;;;;;4948186;28;101355;-69
2022/05/01 06:07:33;;;;;;;4.97;4.55;;;17.10;52.50;;;;;;4950719;28;95241;-68
2022/05/01 06:09:59;;;;;;;4.80;4.40;;;17.30;52.50;;;;;;4950060;28;92633;-69
2022/05/01 06:12:25;;;;;;;4.95;4.45;;;17.30;52.30;;;;;;4950128;28;92518;-70
2022/05/01 06:14:51;;;;;;;4.72;4.20;;;17.40;52.10;;;;;;4949734;28;92967;-69
2022/05/01 06:17:17;;;;;;;5.05;4.55;;;17.50;51.90;;;;;;4949180;28;93753;-68
2022/05/01 06:19:43;;;;;;;4.75;4.32;;;17.50;51.80;;;;;;4949729;28;92562;-69
2022/05/01 06:22:08;;;;;;;4.88;4.32;;;17.60;51.80;;;;;;4951140;28;91967;-68
2022/05/01 06:24:34;;;;;;;4.40;4.00;;;17.70;51.60;;;;;;4950499;28;103182;-68
2022/05/01 06:26:59;;;;;;;4.28;3.88;;;17.70;51.50;;;;;;4949180;28;93873;-68
2022/05/01 06:29:25;;;;;;;4.55;4.15;;;17.80;51.30;;;;;;4948571;28;95451;-69
2022/05/01 06:47:23;;;;;;;5.10;4.07;;;18.10;51.00;;;;;;3853559;22;95897;-62
2022/05/01 06:49:48;;;;;;;3.92;3.53;;;18.10;51.00;;;;;;4949089;28;93181;-63
2022/05/01 06:52:19;;;;;;;4.60;4.20;;;18.10;51.00;;;;;;4949410;28;92917;-62
2022/05/01 06:54:46;;;;;;;5.53;4.03;;;18.10;51.10;;;;;;4947906;28;97504;-63
2022/05/01 06:57:11;;;;;;;4.70;3.90;;;18.10;51.20;;;;;;4949295;28;95054;-62
2022/05/01 06:59:37;;;;;;;6.72;3.97;;;18.20;51.20;;;;;;4948290;28;92591;-63
2022/05/01 07:02:03;;;;;;;4.40;3.63;;;18.20;51.30;;;;;;4951891;28;93213;-62
2022/05/01 07:04:28;;;;;;;4.10;3.63;;;18.20;51.30;;;;;;4952416;28;94766;-62
2022/05/01 07:06:54;;;;;;;5.90;3.95;;;18.20;51.30;;;;;;4952152;28;101136;-63
2022/05/01 07:09:19;;;;;;;5.82;3.78;;;18.20;51.30;;;;;;4952990;28;93035;-62
2022/05/01 07:11:46;;;;;;;5.43;3.60;;;18.20;51.40;;;;;;4953208;28;91710;-62
2022/05/01 07:14:12;;;;;;;4.18;3.78;;;18.20;51.30;;;;;;4952533;28;94272;-62
2022/05/01 07:16:37;;;;;;;4.90;3.47;;;18.30;51.30;;;;;;4952923;28;97432;-62
2022/05/01 07:19:03;;;;;;;5.25;3.90;;;18.30;51.30;;;;;;4951168;28;94805;-62
2022/05/01 07:21:29;;;;;;;3.70;3.30;;;18.40;51.40;;;;;;4953280;28;92913;-62
2022/05/01 07:23:56;;;;;;;4.88;3.67;;;18.40;51.20;;;;;;4952137;28;94651;-63
2022/05/01 07:26:22;;;;;;;4.72;3.40;;;18.40;51.20;;;;;;4951147;28;93767;-62
2022/05/01 07:28:48;;;;;;;5.25;3.30;;;18.40;51.10;;;;;;4952279;28;92836;-63
2022/05/01 07:31:14;;;;;;;4.13;3.38;;;18.50;51.10;;;;;;4934307;28;93700;-62
2022/05/01 07:33:39;;;;;;;4.13;3.30;;;18.50;51.00;;;;;;4952430;28;94109;-62
2022/05/01 07:36:05;;;;;;;3.53;3.05;;;18.60;50.90;;;;;;4953338;28;92769;-62
2022/05/01 07:38:31;;;;;;;4.13;3.35;;;18.60;50.80;;;;;;4951695;28;93116;-62
2022/05/01 07:40:56;;;;;;;3.55;3.25;;;18.70;50.90;;;;;;4952527;28;93858;-64
2022/05/01 07:43:22;;;;;;;5.47;3.50;;;18.70;50.80;;;;;;4950472;28;104463;-64
2022/05/01 07:45:47;;;;;;;3.88;3.22;;;18.70;50.70;;;;;;4951383;28;96204;-63
2022/05/01 07:48:13;;;;;;;3.58;2.97;;;18.80;50.70;;;;;;4951522;28;92560;-64
2022/05/01 07:50:38;;;;;;;3.53;3.05;;;18.80;50.80;;;;;;4952329;28;92818;-62
2022/05/01 07:53:04;;;;;;;3.45;3.15;;;18.80;50.60;;;;;;4952067;28;94297;-62
2022/05/01 07:55:30;;;;;;;3.47;2.80;;;18.80;50.60;;;;;;4953572;28;93721;-63
2022/05/01 07:57:55;;;;;;;3.83;3.03;;;18.90;50.60;;;;;;4952464;28;97068;-63
2022/05/01 08:00:21;;;;;;;3.95;3.17;;;18.90;50.60;;;;;;4952324;28;92249;-63
2022/05/01 08:05:31;;;;;;;4.15;2.80;;;19.00;50.40;;;;;;4951253;28;93627;-62
2022/05/01 08:07:57;;;;;;;4.22;2.90;;;19.00;50.50;;;;;;4949952;28;95374;-63
2022/05/01 08:10:23;;;;;;;4.20;2.67;;;19.00;50.40;;;;;;4951658;28;92513;-63
2022/05/01 08:12:49;;;;;;;3.15;2.50;;;19.00;50.40;;;;;;4951551;28;94379;-63
2022/05/01 08:15:17;;;;;;;5.30;2.95;;;19.10;50.30;;;;;;4950749;28;94031;-63
2022/05/01 08:17:44;;;;;;;3.08;2.63;;;19.10;50.30;;;;;;4951115;28;93407;-63
2022/05/01 08:23:04;;;;;;;3.00;2.70;;;19.10;50.30;;;;;;4951433;28;92698;-62
2022/05/01 08:25:30;;;;;;;3.05;2.70;;;19.10;50.30;;;;;;4951262;28;93902;-63
2022/05/01 08:27:56;;;;;;;3.50;2.47;;;19.10;50.20;;;;;;4950975;28;93204;-64
2022/05/01 08:30:22;;;;;;;2.88;2.45;;;19.10;50.10;;;;;;4950092;28;92603;-63
2022/05/01 08:32:47;;;;;;;4.05;2.53;;;19.20;50.20;;;;;;4949658;28;97116;-63
2022/05/01 08:35:14;;;;;;;2.47;2.28;;;19.10;50.20;;;;;;4951437;28;95120;-63
2022/05/01 08:37:40;;;;;;;3.63;2.75;;;19.10;50.10;;;;;;4952278;28;92597;-65
2022/05/01 08:40:07;;;;;;;3.40;2.50;;;19.10;50.20;;;;;;4951754;28;93333;-62
2022/05/01 08:42:36;;;;;;;2.97;2.45;;;19.10;50.20;;;;;;4952060;28;93291;-62
2022/05/01 08:45:03;;;;;;;2.67;2.42;;;19.00;50.20;;;;;;4951721;28;94415;-62
2022/05/01 08:47:53;;;;;;;3.45;2.25;;;19.00;50.30;;;;;;4951821;28;93074;-62
2022/05/01 08:50:19;;;;;;;3.22;2.80;;;19.00;50.30;;;;;;4952719;28;91954;-62
2022/05/01 08:52:46;;;;;;;3.70;2.72;;;19.00;50.50;;;;;;4951598;28;94788;-62
2022/05/01 08:55:13;;;;;;;4.13;3.08;;;18.90;50.50;;;;;;4951561;28;93960;-63
2022/05/01 08:57:39;;;;;;;4.00;2.28;;;18.90;50.60;;;;;;4950739;28;95233;-66
2022/05/01 09:00:07;;;;;;;3.10;2.42;;;18.90;50.70;;;;;;4951505;28;92786;-62
2022/05/01 09:02:34;;;;;;;3.13;2.75;;;18.80;50.60;;;;;;4951101;28;94300;-63
2022/05/01 09:04:59;;;;;;;2.60;2.40;;;18.80;50.70;;;;;;4951152;28;93968;-62
2022/05/01 09:07:25;;;;;;;2.97;2.70;;;18.70;50.70;;;;;;4951622;28;92873;-63
2022/05/01 09:09:51;;;;;;;3.10;2.80;;;18.70;50.80;;;;;;4952699;28;92596;-63
2022/05/01 09:15:04;;;;;;;3.30;2.50;;;18.70;50.90;;;;;;4951634;28;92939;-63
2022/05/01 09:17:30;;;;;;;3.05;2.75;;;18.70;51.00;;;;;;4951280;28;93091;-64
2022/05/01 09:20:07;;;;;;;3.10;2.40;;;18.60;51.00;;;;;;4951667;28;93017;-64
2022/05/01 09:22:53;;;;;;;4.15;3.15;;;18.60;51.00;;;;;;4948954;28;96636;-63
2022/05/01 09:25:23;;;;;;;3.08;2.78;;;18.60;51.00;;;;;;4950803;28;96600;-64
2022/05/01 09:27:52;;;;;;;3.10;2.78;;;18.60;51.20;;;;;;4952007;28;92747;-63
2022/05/01 09:30:22;;;;;;;3.25;2.67;;;18.50;51.10;;;;;;4951393;28;92948;-63
2022/05/01 09:32:49;;;;;;;2.80;2.60;;;18.50;51.10;;;;;;4950586;28;94723;-64
2022/05/01 09:35:35;;;;;;;3.35;2.58;;;18.50;51.10;;;;;;4951030;28;93112;-63
2022/05/01 09:38:18;;;;;;;2.97;2.72;;;18.50;51.20;;;;;;4951653;28;92653;-63
2022/05/01 09:40:46;;;;;;;2.72;2.53;;;18.50;51.20;;;;;;4952551;28;91767;-63
2022/05/01 09:43:34;;;;;;;3.10;2.80;;;18.50;51.40;;;;;;4951429;28;94477;-63
2022/05/01 09:46:22;;;;;;;2.90;2.63;;;18.50;51.30;;;;;;4934304;28;94687;-62
2022/05/01 09:49:01;;;;;;;3.17;2.88;;;18.50;51.40;;;;;;4949179;28;94943;-63
2022/05/01 09:51:28;;;;;;;3.00;2.70;;;18.50;51.40;;;;;;4951461;28;92443;-63
2022/05/01 09:53:55;;;;;;;3.55;2.90;;;18.50;51.50;;;;;;4951471;28;94789;-63
2022/05/01 09:56:21;;;;;;;3.28;2.97;;;18.40;52.50;;;;;;4932972;28;93035;-65
2022/05/01 09:58:57;;;;;;;3.67;2.67;;;18.50;51.50;;;;;;4950437;28;92558;-63
2022/05/01 10:01:23;;;;;;;3.63;2.60;;;18.40;51.40;;;;;;4951431;28;93016;-63
2022/05/01 10:03:51;;;;;;;3.00;2.70;;;18.40;51.60;;;;;;4950038;28;99319;-62
2022/05/01 10:06:17;;;;;;;3.22;2.72;;;18.40;51.60;;;;;;4950412;28;96241;-62
2022/05/01 10:08:44;;;;;;;2.97;2.67;;;18.40;51.60;;;;;;4950214;28;92849;-62
2022/05/01 10:11:14;;;;;;;3.63;2.83;;;18.40;51.60;;;;;;4951221;28;93125;-62
2022/05/01 10:13:43;;;;;;;3.45;2.90;;;18.40;51.70;;;;;;4948687;28;98101;-62
2022/05/01 10:16:11;;;;;;;3.22;2.90;;;18.40;51.60;;;;;;4951170;28;96245;-62
2022/05/01 10:18:38;;;;;;;3.10;2.80;;;18.30;51.60;;;;;;4950381;28;93134;-62
2022/05/01 10:21:05;;;;;;;3.10;2.80;;;18.40;51.70;;;;;;4951355;28;93238;-62
2022/05/01 10:23:31;;;;;;;2.65;2.45;;;18.40;51.70;;;;;;4950121;28;93242;-62
2022/05/01 10:26:29;;;;;;;3.15;2.80;;;18.30;51.60;;;;;;4950041;28;93964;-63
2022/05/01 10:29:17;;;;;;;3.10;2.88;;;18.30;51.60;;;;;;4929199;28;93125;-62
2022/05/01 10:35:02;;;;;;;3.45;2.72;;;18.30;51.70;;;;;;4950573;28;92710;-63
2022/05/01 10:37:50;;;;;;;2.88;2.63;;;18.30;51.70;;;;;;4953412;28;93903;-62
2022/05/01 10:40:16;;;;;;;2.80;2.60;;;18.30;51.70;;;;;;4952784;28;95250;-63
2022/05/01 10:42:46;;;;;;;2.72;2.53;;;18.30;51.80;;;;;;4936785;28;93000;-63
2022/05/01 10:45:20;;;;;;;3.75;2.88;;;18.30;51.80;;;;;;4953229;28;93131;-62
2022/05/01 10:47:48;;;;;;;2.88;2.60;;;18.30;51.80;;;;;;4952132;28;93059;-62
2022/05/01 10:50:20;;;;;;;3.40;2.95;;;18.30;51.80;;;;;;4954289;28;92948;-63
2022/05/01 10:53:05;;;;;;;2.88;2.63;;;18.30;51.80;;;;;;4954617;28;92463;-63
2022/05/01 10:55:51;;;;;;;3.90;2.92;;;18.30;51.80;;;;;;4953013;28;94535;-62
2022/05/01 10:58:20;;;;;;;9.02;3.33;;;18.30;51.60;;;;;;4953132;28;94779;-63
2022/05/01 11:00:47;;;;;;;11.65;3.13;;;18.30;51.90;;;;;;4953375;28;92503;-64
2022/05/01 11:03:27;;;;;;;9.45;3.67;;;18.30;52.10;;;;;;4952648;28;92623;-63
2022/05/01 11:06:13;;;;;;;14.20;3.80;;;18.30;53.00;;;;;;4951291;28;96546;-63
2022/05/01 11:08:40;;;;;;;25.00;4.28;;;18.40;53.40;;;;;;4952926;28;96667;-64
2022/05/01 11:11:11;;;;;;;21.35;4.25;;;18.40;53.70;;;;;;4953634;28;92611;-68
2022/05/01 11:13:40;;;;;;;13.80;4.15;;;18.50;54.10;;;;;;4953238;28;92452;-63
2022/05/01 11:16:07;;;;;;;10.52;3.50;;;18.60;55.30;;;;;;4953071;28;94663;-64
2022/05/01 11:18:53;;;;;;;18.15;3.83;;;18.60;54.30;;;;;;4952525;28;92969;-64
2022/05/01 11:21:22;;;;;;;10.27;3.35;;;18.70;54.40;;;;;;4953939;28;92965;-65
2022/05/01 11:24:10;;;;;;;11.02;3.63;;;18.70;54.70;;;;;;4953115;28;91855;-64
2022/05/01 11:26:36;;;;;;;12.15;3.55;;;18.90;54.50;;;;;;4952700;28;94184;-64
2022/05/01 11:29:13;;;;;;;10.93;3.00;;;18.90;55.30;;;;;;4953170;28;94524;-64
2022/05/01 11:31:42;;;;;;;9.52;2.95;;;19.00;54.40;;;;;;4951100;28;94943;-63
2022/05/01 11:34:21;;;;;;;10.25;2.92;;;19.10;54.30;;;;;;4952472;28;92813;-64
2022/05/01 11:37:07;;;;;;;16.33;3.42;;;19.20;54.30;;;;;;4952130;28;94285;-63
2022/05/01 11:39:51;;;;;;;16.83;3.95;;;19.30;54.40;;;;;;4952812;28;94122;-64
2022/05/01 11:42:25;;;;;;;22.60;3.70;;;19.40;54.40;;;;;;4953664;28;92493;-66
2022/05/01 11:44:54;;;;;;;27.75;4.40;;;19.40;54.30;;;;;;4952541;28;92505;-66
2022/05/01 11:47:21;;;;;;;20.75;3.78;;;19.50;54.40;;;;;;4951394;28;94697;-65
2022/05/01 11:49:47;;;;;;;15.95;3.60;;;19.50;54.80;;;;;;4952932;28;92764;-64
2022/05/01 11:52:14;;;;;;;24.33;3.40;;;19.60;55.00;;;;;;4952953;28;92683;-64
2022/05/01 11:54:44;;;;;;;15.10;3.55;;;19.60;54.80;;;;;;4954298;28;93092;-64
2022/05/01 12:02:38;;;;;;;13.63;3.40;;;19.60;54.40;;;;;;4953084;28;93471;-64
2022/05/01 12:05:05;;;;;;;16.98;3.55;;;19.60;54.50;;;;;;4952303;28;92964;-63
2022/05/01 12:07:31;;;;;;;11.57;3.25;;;19.60;54.50;;;;;;4952331;28;94431;-64
2022/05/01 12:09:58;;;;;;;9.77;3.10;;;19.60;54.60;;;;;;4953195;28;93279;-66
2022/05/01 12:12:28;;;;;;;13.30;3.42;;;19.60;54.50;;;;;;4952789;28;93229;-65
2022/05/01 12:14:54;;;;;;;10.18;3.40;;;19.60;54.40;;;;;;4952926;28;92157;-65
2022/05/01 12:17:21;;;;;;;12.80;3.45;;;19.60;54.40;;;;;;4952741;28;93220;-65
2022/05/01 12:19:51;;;;;;;7.43;3.10;;;19.60;54.40;;;;;;4952231;28;93948;-64
2022/05/01 12:22:19;;;;;;;16.65;3.65;;;19.50;54.20;;;;;;4950543;28;95382;-66
2022/05/01 12:24:47;;;;;;;7.28;3.38;;;19.50;54.50;;;;;;4952375;28;92983;-64
2022/05/01 12:27:15;;;;;;;13.40;3.40;;;19.50;54.20;;;;;;4952447;28;94462;-66
2022/05/01 12:29:52;;;;;;;7.13;3.00;;;19.50;54.40;;;;;;4934552;28;94042;-65
2022/05/01 12:32:18;;;;;;;10.93;3.05;;;19.50;54.10;;;;;;4952075;28;92608;-64
2022/05/01 12:34:44;;;;;;;11.70;3.72;;;19.40;53.90;;;;;;4952807;28;92526;-64
2022/05/01 12:37:17;;;;;;;9.43;3.10;;;19.40;53.80;;;;;;4952615;28;94439;-64
2022/05/01 12:39:54;;;;;;;11.18;3.28;;;19.40;54.00;;;;;;4952423;28;94171;-64
2022/05/01 12:45:13;;;;;;;11.50;3.60;;;19.40;54.40;;;;;;4951913;28;92767;-64
2022/05/01 12:48:02;;;;;;;8.40;3.10;;;19.40;54.60;;;;;;4949820;28;96758;-64
2022/05/01 12:50:29;;;;;;;7.22;3.20;;;19.40;54.50;;;;;;4951301;28;98104;-64
2022/05/01 12:53:17;;;;;;;5.68;3.10;;;19.40;54.60;;;;;;4952493;28;92899;-64
2022/05/01 12:55:43;;;;;;;8.07;3.30;;;19.40;54.50;;;;;;4933354;28;95833;-65
2022/05/01 12:58:11;;;;;;;10.30;3.25;;;19.40;54.60;;;;;;4949807;28;94094;-66
2022/05/01 13:00:45;;;;;;;6.75;2.95;;;19.30;54.40;;;;;;4952121;28;93277;-65
2022/05/01 13:03:16;;;;;;;7.65;3.05;;;19.40;54.50;;;;;;4952525;28;92579;-65
2022/05/01 13:06:01;;;;;;;6.13;3.28;;;19.30;54.60;;;;;;4952482;28;92227;-65
2022/05/01 13:08:30;;;;;;;5.47;2.83;;;19.30;54.60;;;;;;4951403;28;94519;-65
2022/05/01 13:11:14;;;;;;;7.00;2.95;;;19.20;54.30;;;;;;4951531;28;93797;-64
2022/05/01 13:13:46;;;;;;;9.90;3.10;;;19.20;54.30;;;;;;4950605;28;95333;-65
2022/05/01 13:16:12;;;;;;;7.43;3.15;;;19.20;54.20;;;;;;4952368;28;93053;-64
2022/05/01 13:18:38;;;;;;;5.22;2.97;;;19.20;54.30;;;;;;4950502;28;94483;-65
2022/05/01 13:21:04;;;;;;;7.30;3.22;;;19.20;54.70;;;;;;4950071;28;93858;-65
2022/05/01 13:23:29;;;;;;;5.38;2.67;;;19.20;54.90;;;;;;4950212;28;92963;-65
2022/05/01 13:25:55;;;;;;;8.65;3.20;;;19.20;54.70;;;;;;4950548;28;92642;-65
2022/05/01 13:28:21;;;;;;;6.90;2.80;;;19.20;55.00;;;;;;4950344;28;94811;-65
2022/05/01 13:30:46;;;;;;;5.75;2.92;;;19.20;54.70;;;;;;4950420;28;94153;-64
2022/05/01 13:33:12;;;;;;;9.70;3.28;;;19.30;54.90;;;;;;4951110;28;93231;-65
2022/05/01 13:35:38;;;;;;;7.38;2.90;;;19.30;54.70;;;;;;4950148;28;93199;-65
2022/05/01 13:38:04;;;;;;;7.65;2.70;;;19.30;54.40;;;;;;4948462;28;96561;-66
2022/05/01 13:45:58;;;;;;;4.97;2.83;;;19.20;54.20;;;;;;4949830;28;92917;-64
2022/05/01 13:48:24;;;;;;;6.18;2.72;;;19.20;54.10;;;;;;4950634;28;94299;-65
2022/05/01 13:50:50;;;;;;;8.02;3.10;;;19.20;54.00;;;;;;4950215;28;94056;-65
2022/05/01 13:53:16;;;;;;;6.18;2.95;;;19.10;53.90;;;;;;4950033;28;93068;-65
2022/05/01 13:55:42;;;;;;;8.52;2.90;;;19.20;54.00;;;;;;4950884;28;91773;-65
2022/05/01 13:58:08;;;;;;;6.72;3.05;;;19.10;53.90;;;;;;4950382;28;94617;-65
2022/05/01 14:00:33;;;;;;;5.28;2.40;;;19.10;53.80;;;;;;4949787;28;93340;-66
2022/05/01 14:03:00;;;;;;;8.77;3.15;;;19.10;53.80;;;;;;4948447;28;94996;-65
2022/05/01 14:05:26;;;;;;;5.65;2.60;;;19.10;53.70;;;;;;4950355;28;92866;-64
2022/05/01 14:07:52;;;;;;;6.55;2.83;;;19.20;53.60;;;;;;4950234;28;93119;-64
2022/05/01 14:10:17;;;;;;;4.95;2.47;;;19.10;53.50;;;;;;4949031;28;105885;-64
2022/05/01 14:12:46;;;;;;;6.75;2.63;;;19.10;53.40;;;;;;4950356;28;92536;-64
2022/05/01 14:15:12;;;;;;;5.60;2.70;;;19.20;53.30;;;;;;4950602;28;92764;-64
2022/05/01 14:17:38;;;;;;;5.35;2.50;;;19.20;53.30;;;;;;4950012;28;93108;-65
2022/05/01 14:20:07;;;;;;;6.53;2.25;;;19.20;53.20;;;;;;4950628;28;93769;-66
2022/05/01 14:22:34;;;;;;;5.30;2.42;;;19.20;53.10;;;;;;4931832;28;92674;-64
2022/05/01 14:25:01;;;;;;;5.55;2.25;;;19.20;53.00;;;;;;4950262;28;92898;-64
2022/05/01 14:27:27;;;;;;;5.13;2.50;;;19.20;53.00;;;;;;4948487;28;96469;-64
2022/05/01 14:29:52;;;;;;;5.88;2.45;;;19.20;53.00;;;;;;4948922;28;97654;-64
2022/05/01 14:32:23;;;;;;;3.88;2.35;;;19.20;52.80;;;;;;4949035;28;92562;-65
2022/05/01 14:35:03;;;;;;;4.95;2.40;;;19.20;52.70;;;;;;4950328;28;92787;-63
2022/05/01 14:37:51;;;;;;;3.95;2.55;;;19.20;52.60;;;;;;4949292;28;94362;-63
2022/05/01 14:40:18;;;;;;;4.10;2.17;;;19.20;52.60;;;;;;4948998;28;94708;-64
2022/05/01 14:42:48;;;;;;;3.38;2.10;;;19.20;52.60;;;;;;4949048;28;93042;-65
2022/05/01 14:45:17;;;;;;;4.57;2.42;;;19.20;52.60;;;;;;4950783;28;92419;-65
2022/05/01 14:47:48;;;;;;;4.55;2.13;;;19.20;52.50;;;;;;4950057;28;94280;-65
2022/05/01 14:50:16;;;;;;;2.95;2.15;;;19.20;52.50;;;;;;4950204;28;93919;-66